Time;durP1;ratioP1;P1;durP2;ratioP2;P2;SDS_P1;SDS_P2;PMS_P1;PMS_P2;Temp;Humidity;BMP_temperature;BMP_pressure;BME280_temperature;BME280_humidity;BME280_pressure;Samples;Min_cycle;Max_cycle;Signal;HPM_P1;HPM_P2
2023/10/17 00:01:13;;;;;;;11.47;10.57;;;;;;;6.98;60.06;93205.81;5046991;28;20182;-84
2023/10/17 00:03:38;;;;;;;10.60;10.00;;;;;;;6.92;62.15;93200.81;5042800;28;20277;-83
2023/10/17 00:06:06;;;;;;;10.47;9.93;;;;;;;7.06;62.01;93196.81;5044719;28;20190;-83
2023/10/17 00:08:33;;;;;;;10.07;9.50;;;;;;;7.08;62.77;93174.78;5036323;28;20214;-84
2023/10/17 00:11:07;;;;;;;13.17;10.73;;;;;;;7.37;62.18;93181.34;5046804;28;20258;-84
2023/10/17 00:13:44;;;;;;;10.53;9.93;;;;;;;7.62;61.35;93175.59;5034487;28;20227;-83
2023/10/17 00:16:13;;;;;;;10.03;9.43;;;;;;;7.79;61.27;93178.88;5044853;28;20186;-83
2023/10/17 00:18:39;;;;;;;9.80;9.30;;;;;;;7.83;61.58;93169.53;5033553;28;20229;-83
2023/10/17 00:21:25;;;;;;;10.70;10.10;;;;;;;7.78;61.99;93169.50;5035867;28;20174;-81
2023/10/17 00:23:52;;;;;;;9.83;9.23;;;;;;;7.84;61.16;93166.69;5035728;28;20234;-83
2023/10/17 00:26:18;;;;;;;10.30;9.77;;;;;;;7.88;61.74;93174.78;5041963;28;20194;-83
2023/10/17 00:28:49;;;;;;;10.27;9.67;;;;;;;7.87;62.23;93171.41;5037727;28;20244;-83
2023/10/17 00:31:14;;;;;;;10.57;9.87;;;;;;;7.90;61.62;93163.13;5048168;28;20248;-83
2023/10/17 00:33:41;;;;;;;10.13;9.27;;;;;;;8.01;61.85;93169.97;5035243;28;20218;-82
2023/10/17 00:36:14;;;;;;;10.87;10.23;;;;;;;7.95;62.25;93160.53;5041522;28;20222;-83
2023/10/17 00:38:43;;;;;;;10.13;9.53;;;;;;;7.98;63.04;93162.63;5035599;28;20229;-81
2023/10/17 00:41:10;;;;;;;11.27;10.67;;;;;;;7.89;63.34;93155.56;5037230;28;20190;-83
2023/10/17 00:43:37;;;;;;;11.67;10.77;;;;;;;7.96;62.78;93150.94;5046697;28;20236;-83
2023/10/17 00:46:07;;;;;;;11.10;10.07;;;;;;;7.93;62.52;93147.03;5049019;28;20245;-83
2023/10/17 00:48:34;;;;;;;11.00;10.27;;;;;;;8.03;62.18;93139.28;5033516;28;20309;-81
2023/10/17 00:51:09;;;;;;;10.70;9.77;;;;;;;7.97;62.76;93137.69;5046505;28;20186;-84
2023/10/17 00:53:39;;;;;;;10.30;9.73;;;;;;;7.97;62.98;93142.88;5049871;28;20209;-83
2023/10/17 00:56:06;;;;;;;10.60;10.07;;;;;;;8.03;63.44;93152.28;5052801;28;21141;-83
2023/10/17 00:58:33;;;;;;;10.97;10.30;;;;;;;8.04;63.05;93147.88;5048413;28;20271;-83
2023/10/17 01:03:34;;;;;;;11.30;10.50;;;;;;;8.10;63.56;93132.06;5049987;28;20239;-82
2023/10/17 01:08:47;;;;;;;9.60;9.10;;;;;;;7.96;64.38;93150.94;5047394;28;20228;-80
2023/10/17 01:11:22;;;;;;;9.67;8.87;;;;;;;7.90;64.04;93139.72;5052226;28;20182;-83
2023/10/17 01:13:52;;;;;;;9.43;8.70;;;;;;;8.09;63.72;93150.50;5049882;28;20227;-78
2023/10/17 01:16:19;;;;;;;11.00;10.17;;;;;;;8.07;64.19;93148.16;5047887;28;20194;-83
2023/10/17 01:18:45;;;;;;;11.17;10.47;;;;;;;8.00;64.52;93147.56;5047247;28;20218;-83
2023/10/17 01:21:18;;;;;;;9.13;8.53;;;;;;;8.02;65.40;93155.13;5049325;28;20194;-83
2023/10/17 01:23:45;;;;;;;11.47;10.67;;;;;;;8.08;65.61;93161.94;5050078;28;20229;-84
2023/10/17 01:26:14;;;;;;;10.97;9.97;;;;;;;7.87;66.36;93142.81;5046051;28;20183;-84
2023/10/17 01:28:47;;;;;;;10.40;9.57;;;;;;;7.96;66.05;93161.31;5046856;28;20222;-82
2023/10/17 01:31:22;;;;;;;12.00;11.00;;;;;;;7.84;66.36;93147.72;5049312;28;20245;-82
2023/10/17 01:33:49;;;;;;;10.50;9.90;;;;;;;7.84;66.56;93153.69;5047772;28;20218;-83
2023/10/17 01:36:16;;;;;;;12.10;9.50;;;;;;;7.86;66.14;93146.44;5044391;28;20848;-81
2023/10/17 01:38:42;;;;;;;9.83;9.33;;;;;;;7.88;66.77;93144.38;5047897;28;20210;-84
2023/10/17 01:41:10;;;;;;;9.70;9.07;;;;;;;7.82;65.97;93134.97;5052089;28;20249;-83
2023/10/17 01:43:40;;;;;;;11.83;11.10;;;;;;;7.90;65.91;93139.72;5051013;28;20218;-83
2023/10/17 01:46:11;;;;;;;11.37;10.60;;;;;;;7.95;66.38;93141.56;5049374;28;20230;-82
2023/10/17 01:48:36;;;;;;;12.17;11.47;;;;;;;7.91;67.90;93148.28;5046116;28;20221;-82
2023/10/17 01:51:06;;;;;;;9.77;9.10;;;;;;;7.84;67.87;93147.72;5051062;28;20220;-82
2023/10/17 01:53:33;;;;;;;10.57;10.03;;;;;;;7.88;67.11;93138.38;5040959;28;20220;-82
2023/10/17 01:56:14;;;;;;;10.90;10.13;;;;;;;7.87;66.96;93129.81;5050409;28;20283;-82
2023/10/17 01:58:50;;;;;;;10.43;9.80;;;;;;;7.90;67.15;93142.31;5049393;28;20218;-82
2023/10/17 02:01:24;;;;;;;10.70;10.20;;;;;;;7.94;66.72;93129.59;5050177;28;20188;-82
2023/10/17 02:03:57;;;;;;;11.53;10.77;;;;;;;8.04;66.23;93127.06;5045575;28;20248;-81
2023/10/17 02:06:23;;;;;;;10.70;10.00;;;;;;;7.90;66.91;93131.13;5044547;28;20179;-81
2023/10/17 02:08:48;;;;;;;10.23;9.53;;;;;;;7.90;67.45;93142.31;5042526;28;20260;-83
2023/10/17 02:11:23;;;;;;;11.50;10.80;;;;;;;7.91;67.43;93130.09;5046997;28;20186;-82
2023/10/17 02:13:56;;;;;;;10.73;10.10;;;;;;;7.78;69.49;93136.50;5037675;28;20241;-82
2023/10/17 02:16:28;;;;;;;10.67;10.03;;;;;;;7.85;68.62;93131.88;5047186;28;20178;-82
2023/10/17 02:18:54;;;;;;;10.83;9.87;;;;;;;7.82;68.65;93124.59;5047188;28;20226;-81
2023/10/17 02:21:21;;;;;;;11.20;10.60;;;;;;;7.88;67.29;93122.78;5043644;28;20181;-82
2023/10/17 02:23:50;;;;;;;11.97;10.80;;;;;;;8.04;66.59;93125.25;5049804;28;20881;-82
2023/10/17 02:26:22;;;;;;;9.67;9.17;;;;;;;7.90;67.57;93133.72;5048506;28;20174;-82
2023/10/17 02:28:54;;;;;;;10.80;9.90;;;;;;;7.94;68.18;93132.97;5046660;28;20802;-82
2023/10/17 02:31:29;;;;;;;10.53;9.83;;;;;;;7.79;68.72;93130.28;5056126;28;20186;-84
2023/10/17 02:33:56;;;;;;;11.23;10.53;;;;;;;7.70;69.36;93123.97;5046653;28;20232;-83
2023/10/17 02:36:22;;;;;;;10.77;10.07;;;;;;;7.82;68.80;93127.19;5049860;28;20524;-83
2023/10/17 02:38:47;;;;;;;11.70;10.63;;;;;;;7.95;69.03;93121.53;5047057;28;20240;-82
2023/10/17 02:41:19;;;;;;;12.03;11.17;;;;;;;7.89;69.72;93127.75;5046555;28;20301;-83
2023/10/17 02:43:52;;;;;;;10.83;9.90;;;;;;;7.59;71.04;93118.94;5040599;28;20229;-83
2023/10/17 02:46:18;;;;;;;10.70;9.90;;;;;;;7.40;72.49;93131.50;5004596;28;1157395;-83
2023/10/17 02:48:47;;;;;;;11.90;11.00;;;;;;;7.27;73.05;93115.53;5049731;28;20290;-83
2023/10/17 02:51:31;;;;;;;11.97;11.17;;;;;;;7.18;74.20;93117.78;5043321;28;20194;-84
2023/10/17 02:53:56;;;;;;;11.20;10.33;;;;;;;7.02;75.56;93108.25;5043912;28;20228;-78
2023/10/17 02:56:23;;;;;;;12.00;10.93;;;;;;;6.98;75.67;93116.78;5046824;28;20203;-83
2023/10/17 02:59:13;;;;;;;11.43;10.73;;;;;;;7.03;75.35;93129.81;5042637;28;20273;-82
2023/10/17 03:01:42;;;;;;;11.27;10.50;;;;;;;6.95;75.73;93123.25;5050374;28;20948;-83
2023/10/17 03:04:17;;;;;;;10.90;10.30;;;;;;;6.96;75.21;93122.22;5049480;28;20222;-83
2023/10/17 03:06:47;;;;;;;11.07;10.37;;;;;;;6.67;75.90;93120.06;5050343;28;20280;-83
2023/10/17 03:15:17;;;;;;;10.97;10.13;;;;;;;6.86;74.40;93132.50;5032671;28;20261;-82
2023/10/17 03:17:26;;;;;;;11.63;10.40;;;;;;;6.84;74.83;93144.94;5041903;28;20194;-83
2023/10/17 03:19:52;;;;;;;10.97;10.20;;;;;;;6.75;73.29;93122.25;5044646;28;20218;-83
2023/10/17 03:22:27;;;;;;;10.90;10.03;;;;;;;6.84;73.13;93137.16;5039823;28;20193;-83
2023/10/17 03:25:18;;;;;;;10.40;9.63;;;;;;;6.81;74.30;93135.03;5049410;28;20217;-83
2023/10/17 03:27:49;;;;;;;10.93;9.97;;;;;;;7.09;73.78;93132.22;5047704;28;20197;-80
2023/10/17 03:30:19;;;;;;;10.83;10.17;;;;;;;6.90;74.55;93125.00;5049602;28;20194;-82
2023/10/17 03:35:31;;;;;;;10.03;9.27;;;;;;;6.92;74.18;93118.56;5047835;28;20178;-84
2023/10/17 03:37:56;;;;;;;10.17;9.50;;;;;;;6.76;74.73;93129.00;5049637;28;20213;-83
2023/10/17 03:40:30;;;;;;;11.53;10.83;;;;;;;6.73;75.85;93134.66;5041329;28;20198;-78
2023/10/17 03:42:56;;;;;;;10.60;9.60;;;;;;;6.83;74.75;93130.41;5040632;28;20194;-82
2023/10/17 03:47:53;;;;;;;10.50;9.80;;;;;;;7.04;75.50;93123.59;5047249;28;20198;-81
2023/10/17 03:50:36;;;;;;;11.33;10.23;;;;;;;6.75;75.64;93123.03;5039518;28;20197;-79
2023/10/17 03:53:14;;;;;;;11.80;10.83;;;;;;;7.14;75.68;93131.50;5044490;28;20226;-85
2023/10/17 03:55:42;;;;;;;11.77;10.83;;;;;;;6.92;75.38;93131.53;5049107;28;20213;-82
2023/10/17 03:58:19;;;;;;;11.07;10.37;;;;;;;7.21;74.10;93130.28;5048441;28;20218;-84
2023/10/17 04:00:46;;;;;;;11.23;10.43;;;;;;;7.39;74.27;93116.94;5048768;28;20225;-83
2023/10/17 04:03:34;;;;;;;10.93;10.33;;;;;;;7.38;75.17;93112.78;5041483;28;20260;-79
2023/10/17 04:08:31;;;;;;;12.47;11.73;;;;;;;7.53;75.44;93115.50;5042105;28;20364;-83
2023/10/17 04:13:41;;;;;;;11.90;11.10;;;;;;;7.65;75.96;93129.13;5047713;28;20232;-82
2023/10/17 04:16:10;;;;;;;10.83;9.97;;;;;;;7.62;75.11;93113.25;5047799;28;20178;-76
2023/10/17 04:18:38;;;;;;;12.50;11.20;;;;;;;7.69;75.05;93132.00;5042772;28;20245;-83
2023/10/17 04:24:05;;;;;;;11.47;10.87;;;;;;;7.74;74.70;93119.03;5040233;28;20321;-83
2023/10/17 04:26:34;;;;;;;12.03;11.03;;;;;;;7.83;73.85;93107.16;5040498;28;20185;-80
2023/10/17 04:29:11;;;;;;;11.23;10.60;;;;;;;8.00;75.11;93120.78;5045720;28;20226;-77
2023/10/17 04:31:39;;;;;;;12.00;10.83;;;;;;;7.91;74.56;93120.47;5046221;28;20185;-78
2023/10/17 04:34:08;;;;;;;10.23;9.73;;;;;;;7.89;73.75;93119.94;5043184;28;20222;-76
2023/10/17 04:36:37;;;;;;;13.40;11.07;;;;;;;8.10;73.21;93116.47;5044214;28;20216;-74
2023/10/17 04:39:18;;;;;;;11.73;10.93;;;;;;;8.24;71.47;93116.03;5042397;28;20222;-78
2023/10/17 04:44:21;;;;;;;12.30;11.10;;;;;;;8.26;71.43;93125.16;5035406;28;20228;-74
2023/10/17 04:46:51;;;;;;;11.63;10.90;;;;;;;8.30;71.95;93104.63;5045736;28;20227;-76
2023/10/17 04:49:21;;;;;;;11.33;10.57;;;;;;;8.22;72.23;93108.44;5046659;28;20228;-75
2023/10/17 04:52:05;;;;;;;10.43;9.83;;;;;;;8.24;72.17;93105.63;5044395;28;20170;-74
2023/10/17 04:54:39;;;;;;;12.93;12.10;;;;;;;8.36;71.46;93116.63;5046174;28;20236;-75
2023/10/17 04:57:06;;;;;;;11.20;10.30;;;;;;;8.57;70.19;93113.09;5044860;28;20208;-74
2023/10/17 06:18:38;;;;;;;11.40;10.70;;;;;;;9.80;68.09;93162.41;5042818;28;20220;-74
2023/10/17 06:34:17;;;;;;;10.17;9.57;;;;;;;10.58;62.62;93166.31;5042651;28;20229;-75
2023/10/17 06:36:43;;;;;;;11.67;10.97;;;;;;;10.63;63.50;93168.91;5039842;28;20857;-78
2023/10/17 06:39:17;;;;;;;10.43;9.77;;;;;;;10.77;62.65;93157.63;5043254;28;20233;-79
2023/10/17 06:41:44;;;;;;;10.80;10.20;;;;;;;10.79;62.40;93173.03;5050191;28;20229;-81
2023/10/17 06:44:11;;;;;;;10.47;9.87;;;;;;;10.71;63.30;93163.91;5045912;28;20330;-77
2023/10/17 06:46:40;;;;;;;11.03;10.40;;;;;;;10.89;63.75;93173.81;5046149;28;20213;-76
2023/10/17 06:49:09;;;;;;;11.37;10.50;;;;;;;11.22;61.92;93172.38;5043094;28;20475;-78
2023/10/17 06:51:39;;;;;;;11.10;9.93;;;;;;;11.29;62.34;93181.47;5049202;28;20181;-84
2023/10/17 06:54:12;;;;;;;10.73;10.23;;;;;;;11.38;61.75;93183.53;5045308;28;20220;-89
2023/10/17 06:56:41;;;;;;;9.97;9.37;;;;;;;11.44;61.18;93177.22;5048677;28;20190;-80
2023/10/17 06:59:22;;;;;;;11.03;10.13;;;;;;;11.59;61.27;93190.22;5045447;28;20223;-85
2023/10/17 07:01:55;;;;;;;10.40;9.80;;;;;;;11.54;61.12;93185.00;5047551;28;20257;-83
2023/10/17 07:04:21;;;;;;;11.67;10.57;;;;;;;11.45;63.03;93182.19;5044938;28;20247;-86
2023/10/17 07:06:47;;;;;;;10.43;9.43;;;;;;;11.30;63.41;93159.50;5047673;28;20190;-79
2023/10/17 07:09:16;;;;;;;10.83;10.17;;;;;;;11.72;60.91;93184.44;5047553;28;20246;-77
2023/10/17 07:11:47;;;;;;;10.87;10.27;;;;;;;11.58;60.59;93171.13;5048141;28;20175;-77
2023/10/17 07:14:22;;;;;;;10.80;10.10;;;;;;;11.72;60.38;93164.25;5048729;28;20243;-88
2023/10/17 07:16:48;;;;;;;10.53;9.67;;;;;;;11.45;61.37;93171.72;5041455;28;20212;-77
2023/10/17 07:24:33;;;;;;;10.60;10.00;;;;;;;11.43;60.92;93163.38;5043453;28;20217;-77
2023/10/17 07:27:18;;;;;;;10.77;9.70;;;;;;;11.69;59.70;93161.44;5040461;28;20214;-77
2023/10/17 07:30:03;;;;;;;12.00;11.20;;;;;;;11.75;59.30;93152.50;5047891;28;20219;-76
2023/10/17 07:32:44;;;;;;;11.17;10.43;;;;;;;11.68;59.64;93152.00;5044295;28;20184;-77
2023/10/17 07:35:10;;;;;;;10.53;9.83;;;;;;;11.61;59.92;93146.28;5057602;28;20214;-77
2023/10/17 07:37:54;;;;;;;10.57;9.87;;;;;;;12.05;58.12;93155.66;5056304;28;20203;-76
2023/10/17 07:40:24;;;;;;;10.50;9.80;;;;;;;11.94;58.83;93146.34;5073956;28;20217;-76
2023/10/17 07:42:55;;;;;;;11.27;10.23;;;;;;;11.90;58.72;93155.78;5059176;28;20185;-77
2023/10/17 07:45:22;;;;;;;10.40;9.70;;;;;;;11.90;58.12;93153.19;5072373;28;20256;-76
2023/10/17 07:47:54;;;;;;;10.90;10.17;;;;;;;12.14;58.19;93156.63;5068189;28;20548;-77
2023/10/17 07:50:20;;;;;;;11.53;10.63;;;;;;;12.24;56.98;93147.94;5070324;28;20213;-78
2023/10/17 07:52:54;;;;;;;11.03;10.27;;;;;;;12.31;56.88;93140.53;5067735;28;20196;-74
2023/10/17 07:55:35;;;;;;;11.07;10.37;;;;;;;12.32;56.34;93140.28;5056366;28;20235;-78
2023/10/17 07:58:06;;;;;;;10.33;9.73;;;;;;;12.39;55.88;93126.88;5067344;28;21361;-81
2023/10/17 08:00:35;;;;;;;10.57;10.00;;;;;;;12.41;56.21;93140.44;5068848;28;20190;-80
2023/10/17 08:03:14;;;;;;;10.07;9.50;;;;;;;12.62;55.02;93144.44;5070156;28;20236;-77
2023/10/17 08:06:05;;;;;;;10.57;9.60;;;;;;;12.42;55.77;93144.63;5072271;28;20187;-78
2023/10/17 08:08:41;;;;;;;10.80;10.10;;;;;;;12.27;56.10;93153.41;5066806;28;20226;-78
2023/10/17 08:11:19;;;;;;;10.80;10.20;;;;;;;11.94;57.79;93151.56;5065543;28;20184;-79
2023/10/17 08:13:45;;;;;;;9.77;9.07;;;;;;;12.21;56.67;93161.56;5066988;28;20229;-78
2023/10/17 08:16:20;;;;;;;10.93;10.17;;;;;;;12.40;56.04;93149.38;5067310;28;20183;-78
2023/10/17 08:18:46;;;;;;;11.40;10.80;;;;;;;12.13;57.00;93149.06;5067723;28;20817;-78
2023/10/17 08:23:57;;;;;;;11.63;10.90;;;;;;;12.21;56.76;93156.34;5069495;28;20233;-78
2023/10/17 08:26:28;;;;;;;11.57;10.87;;;;;;;12.12;56.81;93152.75;5066907;28;20185;-77
2023/10/17 08:28:56;;;;;;;10.50;9.40;;;;;;;12.04;57.23;93148.88;5067815;28;20295;-77
2023/10/17 08:31:26;;;;;;;11.07;10.37;;;;;;;12.14;57.04;93155.88;5055341;28;20384;-77
2023/10/17 08:36:43;;;;;;;10.90;10.10;;;;;;;12.26;56.15;93158.91;5054642;28;20217;-76
2023/10/17 08:41:57;;;;;;;11.00;10.40;;;;;;;12.30;58.33;93152.06;5067210;28;20210;-77
2023/10/17 08:44:31;;;;;;;10.10;9.50;;;;;;;12.59;56.58;93152.84;5067094;28;20232;-79
2023/10/17 08:46:57;;;;;;;10.30;9.70;;;;;;;12.57;56.38;93155.75;5066736;28;20227;-77
2023/10/17 08:49:23;;;;;;;10.63;10.03;;;;;;;12.66;56.28;93163.78;5070272;28;20225;-77
2023/10/17 08:51:49;;;;;;;11.30;10.33;;;;;;;12.69;55.59;93153.53;5067743;28;20197;-77
2023/10/17 08:54:14;;;;;;;10.23;9.70;;;;;;;12.70;55.28;93165.56;5066961;28;20281;-77
2023/10/17 08:56:42;;;;;;;10.13;9.57;;;;;;;12.66;55.01;93163.78;5066274;28;20196;-78
2023/10/17 08:59:11;;;;;;;11.00;10.30;;;;;;;12.61;55.07;93161.19;5066245;28;20301;-77
2023/10/17 09:01:37;;;;;;;10.17;9.67;;;;;;;12.64;55.26;93161.44;5063725;28;20472;-78
2023/10/17 09:04:03;;;;;;;10.33;9.63;;;;;;;12.56;55.29;93163.88;5071440;28;20225;-78
2023/10/17 09:06:29;;;;;;;9.83;9.23;;;;;;;12.65;55.26;93149.13;5071585;28;20487;-77
2023/10/17 09:11:41;;;;;;;10.07;9.47;;;;;;;12.58;55.14;93149.44;5068587;28;20222;-77
2023/10/17 09:17:13;;;;;;;10.73;10.13;;;;;;;12.53;56.41;93149.50;5069858;28;20179;-76
2023/10/17 09:19:51;;;;;;;10.57;9.85;;;;;;;12.51;55.85;93140.34;5068244;28;20434;-78
2023/10/17 09:22:37;;;;;;;10.30;9.80;;;;;;;12.58;55.99;93125.88;5075171;28;20237;-77
2023/10/17 09:25:22;;;;;;;10.50;9.70;;;;;;;12.63;56.61;93125.03;5061612;28;20240;-76
2023/10/17 09:27:52;;;;;;;10.47;9.77;;;;;;;12.52;56.14;93113.88;5070658;28;20197;-77
2023/10/17 09:30:18;;;;;;;10.53;9.93;;;;;;;12.65;55.60;93110.59;5070547;28;20196;-74
2023/10/17 09:32:44;;;;;;;10.70;10.03;;;;;;;12.87;55.88;93107.50;5069124;28;20192;-81
2023/10/17 09:35:14;;;;;;;9.97;9.23;;;;;;;12.96;55.75;93116.28;5069473;28;20284;-81
2023/10/17 09:37:52;;;;;;;11.13;10.47;;;;;;;13.07;56.25;93112.53;5074413;28;20180;-78
2023/10/17 09:40:27;;;;;;;9.77;9.27;;;;;;;13.16;54.80;93115.28;5043889;28;20189;-79
2023/10/17 09:42:53;;;;;;;10.73;10.03;;;;;;;13.19;55.37;93112.88;5067131;28;20184;-78
2023/10/17 09:45:20;;;;;;;12.37;10.70;;;;;;;13.06;55.39;93108.31;5065272;28;20300;-79
2023/10/17 09:47:52;;;;;;;11.10;10.20;;;;;;;12.95;56.28;93104.22;5074974;28;20182;-78
2023/10/17 09:50:18;;;;;;;10.47;9.87;;;;;;;12.99;55.43;93105.25;5050164;28;20190;-78
2023/10/17 09:52:48;;;;;;;11.37;10.77;;;;;;;13.01;56.42;93097.13;5047805;28;20196;-79
2023/10/17 09:55:16;;;;;;;10.17;9.43;;;;;;;13.08;55.70;93098.34;5045972;28;21566;-82
2023/10/17 09:57:50;;;;;;;10.63;9.73;;;;;;;12.96;55.67;93101.31;5050204;28;20197;-81
2023/10/17 10:00:31;;;;;;;9.37;8.63;;;;;;;12.85;56.23;93099.13;5049388;28;20201;-79
2023/10/17 10:02:57;;;;;;;9.87;9.33;;;;;;;13.00;55.65;93104.19;5049998;28;20190;-79
2023/10/17 10:05:25;;;;;;;10.63;10.03;;;;;;;12.93;55.06;93101.13;5051770;28;20188;-78
2023/10/17 10:07:52;;;;;;;10.00;9.13;;;;;;;12.40;56.05;93076.03;5045066;28;20214;-80
2023/10/17 10:10:44;;;;;;;10.23;9.73;;;;;;;12.51;56.53;93091.34;5042999;28;20219;-80
2023/10/17 10:13:13;;;;;;;13.43;10.20;;;;;;;12.59;56.13;93080.28;5041609;28;20312;-79
2023/10/17 10:15:58;;;;;;;10.37;9.77;;;;;;;12.49;57.30;93090.09;5042625;28;20181;-81
2023/10/17 10:18:33;;;;;;;10.53;9.83;;;;;;;12.58;55.83;93088.41;5048249;28;20304;-78
2023/10/17 10:20:58;;;;;;;10.17;9.73;;;;;;;12.49;55.69;93074.38;5043429;28;20251;-76
2023/10/17 10:23:40;;;;;;;10.87;9.80;;;;;;;12.31;56.44;93091.56;5050242;28;20212;-75
2023/10/17 10:26:11;;;;;;;10.03;9.57;;;;;;;12.47;55.93;93092.19;5042968;28;20182;-75
2023/10/17 10:28:41;;;;;;;10.47;9.57;;;;;;;12.52;56.14;93089.53;5049729;28;20218;-80
2023/10/17 10:31:33;;;;;;;10.70;9.87;;;;;;;12.21;57.34;93094.28;5050894;28;20917;-77
2023/10/17 10:33:58;;;;;;;9.80;9.33;;;;;;;12.23;57.06;93094.00;5041479;28;20237;-79
2023/10/17 10:36:25;;;;;;;10.97;10.27;;;;;;;12.13;57.76;93086.25;5043650;28;20187;-80
2023/10/17 10:38:54;;;;;;;11.67;10.97;;;;;;;12.19;57.34;93088.53;5042433;28;20222;-82
2023/10/17 10:41:22;;;;;;;10.37;9.50;;;;;;;12.14;58.14;93077.34;5048691;28;20220;-78
2023/10/17 10:43:58;;;;;;;10.17;9.57;;;;;;;12.17;57.68;93079.41;5049368;28;20222;-79
2023/10/17 10:46:23;;;;;;;10.40;9.80;;;;;;;12.21;58.06;93078.59;5038308;28;20222;-81
2023/10/17 10:48:53;;;;;;;10.07;9.43;;;;;;;12.29;58.11;93085.06;5039453;28;20646;-80
2023/10/17 10:51:21;;;;;;;10.60;9.80;;;;;;;12.23;59.15;93070.47;5041815;28;20185;-81
2023/10/17 10:53:54;;;;;;;10.33;9.63;;;;;;;12.12;58.93;93075.00;5042422;28;20221;-76
2023/10/17 10:56:22;;;;;;;11.43;10.30;;;;;;;12.13;59.31;93063.47;5044561;28;20174;-74
2023/10/17 10:58:51;;;;;;;9.93;9.33;;;;;;;12.09;60.99;93069.53;5041729;28;20236;-73
2023/10/17 11:01:18;;;;;;;11.00;10.37;;;;;;;12.16;60.13;93070.78;5045183;28;20254;-74
2023/10/17 11:03:51;;;;;;;11.10;10.40;;;;;;;12.11;61.44;93073.44;5052747;28;20280;-73
2023/10/17 11:06:23;;;;;;;11.03;10.23;;;;;;;12.20;60.86;93071.78;5054716;28;20187;-73
2023/10/17 11:08:49;;;;;;;11.10;10.17;;;;;;;12.15;61.28;93052.72;5032556;28;20218;-73
2023/10/17 11:11:16;;;;;;;10.63;9.87;;;;;;;12.30;61.37;93048.13;5044639;28;20216;-75
2023/10/17 11:13:46;;;;;;;11.00;9.87;;;;;;;12.46;60.89;93059.22;5048255;28;20214;-72
2023/10/17 11:16:16;;;;;;;10.63;9.93;;;;;;;12.56;60.22;93059.88;5046669;28;20977;-73
2023/10/17 11:18:45;;;;;;;11.13;10.33;;;;;;;12.62;59.73;93047.53;5045529;28;20240;-73
2023/10/17 11:21:12;;;;;;;10.20;9.60;;;;;;;12.60;60.15;93039.16;5043113;28;20188;-73
2023/10/17 11:23:50;;;;;;;11.57;10.57;;;;;;;12.67;59.16;93039.59;5043658;28;20306;-77
2023/10/17 11:26:20;;;;;;;11.73;10.63;;;;;;;12.78;58.58;93036.56;5034468;28;20190;-73
2023/10/17 11:28:52;;;;;;;11.83;11.03;;;;;;;12.80;58.45;93029.22;5045221;28;20241;-73
2023/10/17 11:31:24;;;;;;;10.37;9.77;;;;;;;12.74;58.78;93021.69;5043168;28;20188;-73
2023/10/17 11:33:59;;;;;;;10.73;9.93;;;;;;;12.72;58.43;93013.31;5036503;28;20273;-73
2023/10/17 11:36:35;;;;;;;12.80;11.17;;;;;;;12.67;58.64;93014.19;5039324;28;20183;-73
2023/10/17 11:39:04;;;;;;;11.53;10.63;;;;;;;12.71;58.27;93009.16;5044399;28;20225;-73
2023/10/17 11:41:31;;;;;;;11.80;11.00;;;;;;;12.75;57.70;93000.47;5047281;28;20193;-73
2023/10/17 11:44:04;;;;;;;10.73;10.03;;;;;;;12.87;56.91;93010.53;5057681;28;20295;-72
2023/10/17 11:46:37;;;;;;;10.67;9.87;;;;;;;12.66;57.84;93004.78;5068094;28;20224;-73
2023/10/17 11:49:29;;;;;;;10.70;10.10;;;;;;;12.80;56.60;92997.00;5066644;28;20244;-73
2023/10/17 11:52:01;;;;;;;11.37;10.47;;;;;;;12.55;57.46;92994.69;5065610;28;20264;-75
2023/10/17 11:54:31;;;;;;;10.67;9.97;;;;;;;12.71;57.34;92996.06;5071382;28;20248;-73
2023/10/17 11:57:12;;;;;;;10.73;10.00;;;;;;;12.70;57.52;92994.53;5071210;28;20185;-73
2023/10/17 11:59:38;;;;;;;10.97;10.37;;;;;;;12.66;56.95;92985.66;5062936;28;20217;-74
2023/10/17 12:02:03;;;;;;;10.30;9.47;;;;;;;12.70;57.00;92994.53;5067788;28;20223;-73
2023/10/17 12:04:29;;;;;;;13.57;10.30;;;;;;;12.74;56.75;92996.28;5049736;28;20210;-73
2023/10/17 12:06:54;;;;;;;10.67;10.07;;;;;;;12.78;56.82;92994.66;5046087;28;20249;-73
2023/10/17 12:09:22;;;;;;;11.17;10.20;;;;;;;12.79;56.65;92998.81;5043940;28;20227;-73
2023/10/17 12:11:54;;;;;;;10.67;10.17;;;;;;;12.60;56.31;92950.09;5042023;28;20257;-72
2023/10/17 12:14:21;;;;;;;11.67;10.80;;;;;;;12.80;56.75;92997.00;5045266;28;20226;-73
2023/10/17 12:16:53;;;;;;;10.10;9.23;;;;;;;12.55;57.09;92994.69;5043869;28;20187;-72
2023/10/17 12:19:22;;;;;;;11.50;10.60;;;;;;;12.70;56.50;92986.66;5042663;28;20244;-75
2023/10/17 12:21:48;;;;;;;11.47;10.70;;;;;;;12.66;56.60;92980.41;5048046;28;20688;-75
2023/10/17 12:24:21;;;;;;;11.10;10.40;;;;;;;12.45;57.45;92979.13;5042980;28;20237;-78
2023/10/17 12:26:49;;;;;;;11.83;10.67;;;;;;;12.46;57.66;92991.91;5045881;28;20204;-74
2023/10/17 12:29:15;;;;;;;10.20;9.60;;;;;;;12.31;58.27;92978.22;5059461;28;20247;-74
2023/10/17 12:31:41;;;;;;;11.47;10.50;;;;;;;12.39;58.29;92982.84;5068982;28;20219;-75
2023/10/17 12:34:07;;;;;;;10.33;9.70;;;;;;;12.24;59.30;92977.78;5066638;28;20240;-76
2023/10/17 12:36:37;;;;;;;11.33;10.40;;;;;;;12.18;59.88;92979.69;5068094;28;20178;-75
2023/10/17 12:39:03;;;;;;;11.13;10.27;;;;;;;12.27;59.35;92972.75;5062448;28;20240;-75
2023/10/17 12:41:30;;;;;;;10.33;9.67;;;;;;;12.22;59.49;92969.41;5067772;28;20220;-83
2023/10/17 12:43:55;;;;;;;10.33;9.53;;;;;;;12.10;60.14;92966.41;5067359;28;20227;-83
2023/10/17 12:46:20;;;;;;;11.40;10.70;;;;;;;12.05;60.66;92969.88;5067943;28;20230;-75
2023/10/17 12:48:46;;;;;;;11.10;10.07;;;;;;;12.17;60.55;92967.63;5069358;28;20255;-81
2023/10/17 12:51:12;;;;;;;11.33;10.63;;;;;;;12.23;60.27;92966.50;5071565;28;20344;-76
2023/10/17 12:53:38;;;;;;;10.93;9.93;;;;;;;12.02;60.92;92951.31;5070154;28;20243;-75
2023/10/17 12:56:05;;;;;;;10.00;9.40;;;;;;;12.07;60.42;92964.34;5070530;28;20189;-74
2023/10/17 12:58:32;;;;;;;11.77;10.77;;;;;;;12.13;60.38;92966.63;5069230;28;20225;-73
2023/10/17 13:00:58;;;;;;;11.00;10.30;;;;;;;12.22;59.44;92964.97;5071586;28;20182;-73
2023/10/17 13:03:25;;;;;;;9.80;9.20;;;;;;;12.12;59.72;92966.91;5071059;28;20238;-75
2023/10/17 13:05:51;;;;;;;11.20;10.40;;;;;;;12.13;59.55;92966.63;5072423;28;20173;-76
2023/10/17 13:08:16;;;;;;;10.30;9.50;;;;;;;12.06;59.76;92960.94;5071737;28;20228;-74
2023/10/17 13:10:42;;;;;;;10.40;9.90;;;;;;;11.89;60.52;92967.69;5071614;28;20178;-74
2023/10/17 13:13:07;;;;;;;11.30;10.50;;;;;;;12.05;60.53;92967.25;5071070;28;20239;-73
2023/10/17 13:15:33;;;;;;;10.83;9.73;;;;;;;12.11;60.38;92963.50;5070119;28;20185;-77
2023/10/17 13:18:03;;;;;;;10.50;9.47;;;;;;;12.09;61.46;92967.47;5069605;28;20221;-77
2023/10/17 13:20:29;;;;;;;9.90;9.40;;;;;;;12.11;61.39;92968.00;5068757;28;20196;-83
2023/10/17 13:23:03;;;;;;;11.73;10.13;;;;;;;12.21;61.13;92965.25;5071779;28;20175;-78
2023/10/17 13:25:36;;;;;;;10.83;10.00;;;;;;;12.19;61.32;92965.53;5058365;28;20186;-77
2023/10/17 13:28:03;;;;;;;14.27;10.50;;;;;;;12.13;62.06;92966.63;5058882;28;20251;-77
2023/10/17 13:30:28;;;;;;;10.43;9.33;;;;;;;11.85;63.04;92956.19;5062037;28;20178;-81
2023/10/17 13:32:54;;;;;;;10.70;9.90;;;;;;;12.04;62.68;92960.47;5068833;28;20221;-78
2023/10/17 13:35:23;;;;;;;11.80;10.60;;;;;;;12.09;62.89;92962.25;5071161;28;20192;-79
2023/10/17 13:37:51;;;;;;;10.80;9.90;;;;;;;11.88;64.27;92942.56;5069149;28;20207;-77
2023/10/17 13:40:21;;;;;;;10.23;9.53;;;;;;;12.02;64.67;92959.16;5071607;28;20174;-82
2023/10/17 13:42:50;;;;;;;10.73;10.00;;;;;;;11.88;65.28;92953.03;5053813;28;20293;-79
2023/10/17 13:45:15;;;;;;;12.73;11.53;;;;;;;11.83;66.10;92956.47;5071486;28;20230;-81
2023/10/17 13:47:41;;;;;;;11.43;10.33;;;;;;;11.76;66.14;92952.63;5067918;28;20192;-71
2023/10/17 13:50:13;;;;;;;10.23;9.70;;;;;;;11.68;66.73;92959.25;5066638;28;20213;-73
2023/10/17 13:52:39;;;;;;;9.90;9.20;;;;;;;11.66;67.56;92961.34;5067007;28;20187;-75
2023/10/17 13:55:09;;;;;;;11.37;10.67;;;;;;;11.84;66.95;92960.69;5073204;28;20268;-75
2023/10/17 13:57:35;;;;;;;11.43;10.60;;;;;;;11.78;67.00;92953.16;5071439;28;20185;-75